sensor_id;sensor_type;location;lat;lon;timestamp;temperature;humidity
52555;DHT22;38455;52.710;6.502;2023-06-22T00:01:54;19.10;99.90
52555;DHT22;38455;52.710;6.502;2023-06-22T00:04:19;19.00;99.90
52555;DHT22;38455;52.710;6.502;2023-06-22T00:06:45;19.00;99.90
52555;DHT22;38455;52.710;6.502;2023-06-22T00:09:11;19.00;99.90
52555;DHT22;38455;52.710;6.502;2023-06-22T00:11:37;19.00;99.90
52555;DHT22;38455;52.710;6.502;2023-06-22T00:14:03;19.00;99.90
52555;DHT22;38455;52.710;6.502;2023-06-22T00:16:30;18.90;99.90
52555;DHT22;38455;52.710;6.502;2023-06-22T00:18:55;18.90;99.90
52555;DHT22;38455;52.710;6.502;2023-06-22T00:21:21;18.90;99.90
52555;DHT22;38455;52.710;6.502;2023-06-22T00:23:47;18.80;99.90
52555;DHT22;38455;52.710;6.502;2023-06-22T00:26:13;18.90;99.90
52555;DHT22;38455;52.710;6.502;2023-06-22T00:28:39;18.90;99.90
52555;DHT22;38455;52.710;6.502;2023-06-22T00:31:05;18.90;99.90
52555;DHT22;38455;52.710;6.502;2023-06-22T00:33:30;18.80;99.90
52555;DHT22;38455;52.710;6.502;2023-06-22T00:35:57;18.80;99.90
52555;DHT22;38455;52.710;6.502;2023-06-22T00:38:23;18.80;99.90
52555;DHT22;38455;52.710;6.502;2023-06-22T00:40:48;18.80;99.90
52555;DHT22;38455;52.710;6.502;2023-06-22T00:43:14;18.70;99.90
52555;DHT22;38455;52.710;6.502;2023-06-22T00:45:40;18.80;99.90
52555;DHT22;38455;52.710;6.502;2023-06-22T00:48:06;18.70;99.90
52555;DHT22;38455;52.710;6.502;2023-06-22T00:50:33;18.70;99.90
52555;DHT22;38455;52.710;6.502;2023-06-22T00:53:09;18.70;99.90
52555;DHT22;38455;52.710;6.502;2023-06-22T00:55:37;18.60;99.90
52555;DHT22;38455;52.710;6.502;2023-06-22T00:58:07;18.60;99.90
52555;DHT22;38455;52.710;6.502;2023-06-22T01:00:36;18.50;99.90
52555;DHT22;38455;52.710;6.502;2023-06-22T01:03:03;18.50;99.90
52555;DHT22;38455;52.710;6.502;2023-06-22T01:05:29;18.50;99.90
52555;DHT22;38455;52.710;6.502;2023-06-22T01:08:06;18.40;99.90
52555;DHT22;38455;52.710;6.502;2023-06-22T01:10:54;18.40;99.90
52555;DHT22;38455;52.710;6.502;2023-06-22T01:16:09;18.30;99.90
52555;DHT22;38455;52.710;6.502;2023-06-22T01:18:36;18.30;99.90
52555;DHT22;38455;52.710;6.502;2023-06-22T01:21:06;18.30;99.90
52555;DHT22;38455;52.710;6.502;2023-06-22T01:28:48;18.30;99.90
52555;DHT22;38455;52.710;6.502;2023-06-22T01:31:27;18.30;99.90
52555;DHT22;38455;52.710;6.502;2023-06-22T01:33:58;18.30;99.90
52555;DHT22;38455;52.710;6.502;2023-06-22T01:36:25;18.20;99.90
52555;DHT22;38455;52.710;6.502;2023-06-22T01:38:52;18.30;99.90
52555;DHT22;38455;52.710;6.502;2023-06-22T01:41:20;18.20;99.90
52555;DHT22;38455;52.710;6.502;2023-06-22T01:43:47;18.20;99.90
52555;DHT22;38455;52.710;6.502;2023-06-22T01:46:14;18.20;99.90
52555;DHT22;38455;52.710;6.502;2023-06-22T01:48:40;18.20;99.90
52555;DHT22;38455;52.710;6.502;2023-06-22T01:51:06;18.20;99.90
52555;DHT22;38455;52.710;6.502;2023-06-22T01:53:32;18.20;99.90
52555;DHT22;38455;52.710;6.502;2023-06-22T01:55:57;18.10;99.90
52555;DHT22;38455;52.710;6.502;2023-06-22T01:58:26;18.10;99.90
52555;DHT22;38455;52.710;6.502;2023-06-22T02:01:11;18.10;99.90
52555;DHT22;38455;52.710;6.502;2023-06-22T02:03:52;18.10;99.90
52555;DHT22;38455;52.710;6.502;2023-06-22T02:06:25;18.00;99.90
52555;DHT22;38455;52.710;6.502;2023-06-22T02:08:55;18.00;99.90
52555;DHT22;38455;52.710;6.502;2023-06-22T02:11:22;17.90;99.90
52555;DHT22;38455;52.710;6.502;2023-06-22T02:13:51;17.90;99.90
52555;DHT22;38455;52.710;6.502;2023-06-22T02:16:18;17.90;99.90
52555;DHT22;38455;52.710;6.502;2023-06-22T02:18:48;17.90;99.90
52555;DHT22;38455;52.710;6.502;2023-06-22T02:21:21;17.80;99.90
52555;DHT22;38455;52.710;6.502;2023-06-22T02:23:47;17.80;99.90
52555;DHT22;38455;52.710;6.502;2023-06-22T02:26:13;17.80;99.90
52555;DHT22;38455;52.710;6.502;2023-06-22T02:28:39;17.70;99.90
52555;DHT22;38455;52.710;6.502;2023-06-22T02:31:05;17.70;99.90
52555;DHT22;38455;52.710;6.502;2023-06-22T02:33:30;17.70;99.90
52555;DHT22;38455;52.710;6.502;2023-06-22T02:35:56;17.70;99.90
52555;DHT22;38455;52.710;6.502;2023-06-22T02:38:22;17.70;99.90
52555;DHT22;38455;52.710;6.502;2023-06-22T02:40:50;17.70;99.90
52555;DHT22;38455;52.710;6.502;2023-06-22T02:43:16;17.70;99.90
52555;DHT22;38455;52.710;6.502;2023-06-22T02:45:42;17.60;99.90
52555;DHT22;38455;52.710;6.502;2023-06-22T02:48:07;17.60;99.90
52555;DHT22;38455;52.710;6.502;2023-06-22T02:50:33;17.60;99.90
52555;DHT22;38455;52.710;6.502;2023-06-22T02:52:59;17.60;99.90
52555;DHT22;38455;52.710;6.502;2023-06-22T02:55:24;17.50;99.90
52555;DHT22;38455;52.710;6.502;2023-06-22T02:57:50;17.50;99.90
52555;DHT22;38455;52.710;6.502;2023-06-22T03:00:19;17.50;99.90
52555;DHT22;38455;52.710;6.502;2023-06-22T03:02:48;17.50;99.90
52555;DHT22;38455;52.710;6.502;2023-06-22T03:05:15;17.40;99.90
52555;DHT22;38455;52.710;6.502;2023-06-22T03:07:46;17.40;99.90
52555;DHT22;38455;52.710;6.502;2023-06-22T03:10:13;17.40;99.90
52555;DHT22;38455;52.710;6.502;2023-06-22T03:12:39;17.40;99.90
52555;DHT22;38455;52.710;6.502;2023-06-22T03:15:10;17.40;99.90
52555;DHT22;38455;52.710;6.502;2023-06-22T03:17:37;17.40;99.90
52555;DHT22;38455;52.710;6.502;2023-06-22T03:20:05;17.20;99.90
52555;DHT22;38455;52.710;6.502;2023-06-22T03:22:35;17.20;99.90
52555;DHT22;38455;52.710;6.502;2023-06-22T03:25:01;17.30;99.90
52555;DHT22;38455;52.710;6.502;2023-06-22T03:27:27;17.30;99.90
52555;DHT22;38455;52.710;6.502;2023-06-22T03:29:53;17.30;99.90
52555;DHT22;38455;52.710;6.502;2023-06-22T03:32:19;17.30;99.90
52555;DHT22;38455;52.710;6.502;2023-06-22T03:34:44;17.30;99.90
52555;DHT22;38455;52.710;6.502;2023-06-22T03:37:14;17.30;99.90
52555;DHT22;38455;52.710;6.502;2023-06-22T03:39:41;17.30;99.90
52555;DHT22;38455;52.710;6.502;2023-06-22T03:42:06;17.30;99.90
52555;DHT22;38455;52.710;6.502;2023-06-22T03:44:32;17.30;99.90
52555;DHT22;38455;52.710;6.502;2023-06-22T03:46:58;17.30;99.90
52555;DHT22;38455;52.710;6.502;2023-06-22T03:49:24;17.30;99.90
52555;DHT22;38455;52.710;6.502;2023-06-22T03:51:49;17.30;99.90
52555;DHT22;38455;52.710;6.502;2023-06-22T03:54:15;17.30;99.90
52555;DHT22;38455;52.710;6.502;2023-06-22T03:56:41;17.30;99.90
52555;DHT22;38455;52.710;6.502;2023-06-22T03:59:06;17.30;99.90
52555;DHT22;38455;52.710;6.502;2023-06-22T04:01:32;17.30;99.90
52555;DHT22;38455;52.710;6.502;2023-06-22T04:03:58;17.30;99.90
52555;DHT22;38455;52.710;6.502;2023-06-22T04:06:24;17.30;99.90
52555;DHT22;38455;52.710;6.502;2023-06-22T04:08:49;17.30;99.90
52555;DHT22;38455;52.710;6.502;2023-06-22T04:11:19;17.40;99.90
52555;DHT22;38455;52.710;6.502;2023-06-22T04:13:45;17.40;99.90
52555;DHT22;38455;52.710;6.502;2023-06-22T04:16:11;17.50;99.90
52555;DHT22;38455;52.710;6.502;2023-06-22T04:18:36;17.50;99.90
52555;DHT22;38455;52.710;6.502;2023-06-22T04:21:03;17.50;99.90
52555;DHT22;38455;52.710;6.502;2023-06-22T04:23:28;17.50;99.90
52555;DHT22;38455;52.710;6.502;2023-06-22T04:25:54;17.60;99.90
52555;DHT22;38455;52.710;6.502;2023-06-22T04:28:22;17.70;99.90
52555;DHT22;38455;52.710;6.502;2023-06-22T04:30:48;17.70;99.90
52555;DHT22;38455;52.710;6.502;2023-06-22T04:33:15;17.70;99.90
52555;DHT22;38455;52.710;6.502;2023-06-22T04:35:41;17.80;99.90
52555;DHT22;38455;52.710;6.502;2023-06-22T04:38:12;17.80;99.90
52555;DHT22;38455;52.710;6.502;2023-06-22T04:40:39;17.90;99.90
52555;DHT22;38455;52.710;6.502;2023-06-22T04:43:05;18.10;99.90
52555;DHT22;38455;52.710;6.502;2023-06-22T04:45:32;18.40;99.90
52555;DHT22;38455;52.710;6.502;2023-06-22T04:47:58;18.70;99.90
52555;DHT22;38455;52.710;6.502;2023-06-22T04:50:24;19.00;99.90
52555;DHT22;38455;52.710;6.502;2023-06-22T04:52:51;19.40;99.90
52555;DHT22;38455;52.710;6.502;2023-06-22T04:55:17;19.80;99.90
52555;DHT22;38455;52.710;6.502;2023-06-22T04:57:45;20.20;99.90
52555;DHT22;38455;52.710;6.502;2023-06-22T05:00:17;20.60;99.90
52555;DHT22;38455;52.710;6.502;2023-06-22T05:02:45;20.90;99.90
52555;DHT22;38455;52.710;6.502;2023-06-22T05:05:12;21.10;99.90
52555;DHT22;38455;52.710;6.502;2023-06-22T05:07:46;21.40;99.90
52555;DHT22;38455;52.710;6.502;2023-06-22T05:10:14;21.60;99.90
52555;DHT22;38455;52.710;6.502;2023-06-22T05:12:41;21.90;99.90
52555;DHT22;38455;52.710;6.502;2023-06-22T05:15:08;22.20;99.90
52555;DHT22;38455;52.710;6.502;2023-06-22T05:17:35;22.30;99.90
52555;DHT22;38455;52.710;6.502;2023-06-22T05:20:01;22.50;99.90
52555;DHT22;38455;52.710;6.502;2023-06-22T05:22:27;22.80;99.90
52555;DHT22;38455;52.710;6.502;2023-06-22T05:24:53;22.90;99.90
52555;DHT22;38455;52.710;6.502;2023-06-22T05:27:19;23.10;99.90
52555;DHT22;38455;52.710;6.502;2023-06-22T05:29:45;22.90;99.90
52555;DHT22;38455;52.710;6.502;2023-06-22T05:32:10;23.10;99.90
52555;DHT22;38455;52.710;6.502;2023-06-22T05:34:36;23.30;99.90
52555;DHT22;38455;52.710;6.502;2023-06-22T05:37:02;23.50;99.90
52555;DHT22;38455;52.710;6.502;2023-06-22T05:39:28;23.60;99.90
52555;DHT22;38455;52.710;6.502;2023-06-22T05:41:54;24.00;99.90
52555;DHT22;38455;52.710;6.502;2023-06-22T05:44:20;24.00;99.90
52555;DHT22;38455;52.710;6.502;2023-06-22T05:46:45;24.30;99.90
52555;DHT22;38455;52.710;6.502;2023-06-22T05:49:14;24.10;99.90
52555;DHT22;38455;52.710;6.502;2023-06-22T05:51:41;24.00;99.90
52555;DHT22;38455;52.710;6.502;2023-06-22T05:54:07;24.10;99.90
52555;DHT22;38455;52.710;6.502;2023-06-22T05:56:34;24.10;99.90
52555;DHT22;38455;52.710;6.502;2023-06-22T05:59:00;24.00;99.90
52555;DHT22;38455;52.710;6.502;2023-06-22T06:01:25;24.10;99.90
52555;DHT22;38455;52.710;6.502;2023-06-22T06:03:52;24.60;99.90
52555;DHT22;38455;52.710;6.502;2023-06-22T06:06:18;24.70;99.90
52555;DHT22;38455;52.710;6.502;2023-06-22T06:08:47;24.80;99.90
52555;DHT22;38455;52.710;6.502;2023-06-22T06:11:12;25.20;99.90
52555;DHT22;38455;52.710;6.502;2023-06-22T06:13:38;25.20;99.90
52555;DHT22;38455;52.710;6.502;2023-06-22T06:16:04;25.70;99.90
52555;DHT22;38455;52.710;6.502;2023-06-22T06:18:29;25.70;99.90
52555;DHT22;38455;52.710;6.502;2023-06-22T06:20:55;26.00;99.90
52555;DHT22;38455;52.710;6.502;2023-06-22T06:23:21;25.70;99.90
52555;DHT22;38455;52.710;6.502;2023-06-22T06:25:46;25.60;99.90
52555;DHT22;38455;52.710;6.502;2023-06-22T06:28:12;25.60;99.90
52555;DHT22;38455;52.710;6.502;2023-06-22T06:30:38;25.50;99.90
52555;DHT22;38455;52.710;6.502;2023-06-22T06:33:03;25.60;99.90
52555;DHT22;38455;52.710;6.502;2023-06-22T06:35:34;25.50;99.90
52555;DHT22;38455;52.710;6.502;2023-06-22T06:38:00;25.30;99.90
52555;DHT22;38455;52.710;6.502;2023-06-22T06:40:26;25.30;99.90
52555;DHT22;38455;52.710;6.502;2023-06-22T06:42:51;25.70;99.90
52555;DHT22;38455;52.710;6.502;2023-06-22T06:45:19;25.80;99.90
52555;DHT22;38455;52.710;6.502;2023-06-22T06:47:46;26.20;99.90
52555;DHT22;38455;52.710;6.502;2023-06-22T06:50:12;26.50;99.90
52555;DHT22;38455;52.710;6.502;2023-06-22T06:52:38;26.50;99.90
52555;DHT22;38455;52.710;6.502;2023-06-22T06:55:04;26.20;99.90
52555;DHT22;38455;52.710;6.502;2023-06-22T06:57:33;26.70;99.90
52555;DHT22;38455;52.710;6.502;2023-06-22T06:59:59;27.10;99.90
52555;DHT22;38455;52.710;6.502;2023-06-22T07:02:26;27.40;99.90
52555;DHT22;38455;52.710;6.502;2023-06-22T07:04:53;27.40;99.90
52555;DHT22;38455;52.710;6.502;2023-06-22T07:07:21;27.20;99.90
52555;DHT22;38455;52.710;6.502;2023-06-22T07:09:47;27.30;99.90
52555;DHT22;38455;52.710;6.502;2023-06-22T07:12:12;27.30;99.90
52555;DHT22;38455;52.710;6.502;2023-06-22T07:14:38;27.20;99.90
52555;DHT22;38455;52.710;6.502;2023-06-22T07:17:04;27.30;99.90
52555;DHT22;38455;52.710;6.502;2023-06-22T07:19:30;27.30;99.90
52555;DHT22;38455;52.710;6.502;2023-06-22T07:21:57;27.40;99.90
52555;DHT22;38455;52.710;6.502;2023-06-22T07:24:23;27.50;99.90
52555;DHT22;38455;52.710;6.502;2023-06-22T07:26:50;27.90;99.90
52555;DHT22;38455;52.710;6.502;2023-06-22T07:29:19;28.40;99.90
52555;DHT22;38455;52.710;6.502;2023-06-22T07:31:50;28.80;99.20
52555;DHT22;38455;52.710;6.502;2023-06-22T07:34:17;29.20;98.90
52555;DHT22;38455;52.710;6.502;2023-06-22T07:36:43;29.50;98.70
52555;DHT22;38455;52.710;6.502;2023-06-22T07:39:09;29.80;97.90
52555;DHT22;38455;52.710;6.502;2023-06-22T07:41:35;30.20;97.10
52555;DHT22;38455;52.710;6.502;2023-06-22T07:44:02;30.30;96.50
52555;DHT22;38455;52.710;6.502;2023-06-22T07:46:28;30.20;95.60
52555;DHT22;38455;52.710;6.502;2023-06-22T07:48:59;29.90;95.00
52555;DHT22;38455;52.710;6.502;2023-06-22T07:51:25;30.30;95.50
52555;DHT22;38455;52.710;6.502;2023-06-22T07:53:51;30.20;94.30
52555;DHT22;38455;52.710;6.502;2023-06-22T07:56:17;30.30;94.20
52555;DHT22;38455;52.710;6.502;2023-06-22T07:58:47;30.90;93.90
52555;DHT22;38455;52.710;6.502;2023-06-22T08:01:14;31.00;93.00
52555;DHT22;38455;52.710;6.502;2023-06-22T08:03:40;31.20;92.50
52555;DHT22;38455;52.710;6.502;2023-06-22T08:06:07;31.10;92.90
52555;DHT22;38455;52.710;6.502;2023-06-22T08:08:37;31.30;92.10
52555;DHT22;38455;52.710;6.502;2023-06-22T08:11:03;31.30;91.50
52555;DHT22;38455;52.710;6.502;2023-06-22T08:13:28;31.50;91.30
52555;DHT22;38455;52.710;6.502;2023-06-22T08:15:54;31.70;91.20
52555;DHT22;38455;52.710;6.502;2023-06-22T08:18:20;31.50;90.50
52555;DHT22;38455;52.710;6.502;2023-06-22T08:20:46;31.50;90.70
52555;DHT22;38455;52.710;6.502;2023-06-22T08:23:12;31.60;90.90
52555;DHT22;38455;52.710;6.502;2023-06-22T08:25:37;32.00;90.40
52555;DHT22;38455;52.710;6.502;2023-06-22T08:28:04;32.30;89.50
52555;DHT22;38455;52.710;6.502;2023-06-22T08:30:29;32.60;89.10
52555;DHT22;38455;52.710;6.502;2023-06-22T08:32:55;32.30;87.60
52555;DHT22;38455;52.710;6.502;2023-06-22T08:35:24;32.70;87.20
52555;DHT22;38455;52.710;6.502;2023-06-22T08:37:50;33.10;86.90
52555;DHT22;38455;52.710;6.502;2023-06-22T08:40:18;33.20;85.50
52555;DHT22;38455;52.710;6.502;2023-06-22T08:42:45;32.90;84.20
52555;DHT22;38455;52.710;6.502;2023-06-22T08:45:12;33.10;83.60
52555;DHT22;38455;52.710;6.502;2023-06-22T08:47:38;33.00;84.30
52555;DHT22;38455;52.710;6.502;2023-06-22T08:50:05;32.90;83.10
52555;DHT22;38455;52.710;6.502;2023-06-22T08:52:32;32.30;81.00
52555;DHT22;38455;52.710;6.502;2023-06-22T08:54:58;32.50;81.40
52555;DHT22;38455;52.710;6.502;2023-06-22T08:57:23;32.00;81.60
52555;DHT22;38455;52.710;6.502;2023-06-22T08:59:49;32.10;82.50
52555;DHT22;38455;52.710;6.502;2023-06-22T09:02:17;32.30;82.00
52555;DHT22;38455;52.710;6.502;2023-06-22T09:04:43;32.00;82.40
52555;DHT22;38455;52.710;6.502;2023-06-22T09:07:10;32.40;81.40
52555;DHT22;38455;52.710;6.502;2023-06-22T09:09:37;32.50;81.50
52555;DHT22;38455;52.710;6.502;2023-06-22T09:12:02;32.10;80.10
52555;DHT22;38455;52.710;6.502;2023-06-22T09:14:28;32.20;80.40
52555;DHT22;38455;52.710;6.502;2023-06-22T09:16:54;32.30;81.00
52555;DHT22;38455;52.710;6.502;2023-06-22T09:19:19;32.10;80.80
52555;DHT22;38455;52.710;6.502;2023-06-22T09:21:45;32.30;80.70
52555;DHT22;38455;52.710;6.502;2023-06-22T09:24:11;32.50;80.90
52555;DHT22;38455;52.710;6.502;2023-06-22T09:26:36;32.70;80.40
52555;DHT22;38455;52.710;6.502;2023-06-22T09:29:05;33.10;79.50
52555;DHT22;38455;52.710;6.502;2023-06-22T09:31:31;33.30;80.70
52555;DHT22;38455;52.710;6.502;2023-06-22T09:33:57;33.60;79.20
52555;DHT22;38455;52.710;6.502;2023-06-22T09:36:22;33.00;78.40
52555;DHT22;38455;52.710;6.502;2023-06-22T09:38:49;32.60;79.40
52555;DHT22;38455;52.710;6.502;2023-06-22T09:41:20;31.90;79.00
52555;DHT22;38455;52.710;6.502;2023-06-22T09:43:46;31.70;78.90
52555;DHT22;38455;52.710;6.502;2023-06-22T09:46:14;31.70;79.10
52555;DHT22;38455;52.710;6.502;2023-06-22T09:48:40;31.30;80.30
52555;DHT22;38455;52.710;6.502;2023-06-22T09:51:06;31.70;80.10
52555;DHT22;38455;52.710;6.502;2023-06-22T09:53:31;32.20;79.60
52555;DHT22;38455;52.710;6.502;2023-06-22T09:55:57;32.30;79.10
52555;DHT22;38455;52.710;6.502;2023-06-22T09:58:23;31.80;78.70
52555;DHT22;38455;52.710;6.502;2023-06-22T10:00:49;31.90;78.80
52555;DHT22;38455;52.710;6.502;2023-06-22T10:03:14;31.70;79.50
52555;DHT22;38455;52.710;6.502;2023-06-22T10:05:40;31.60;79.60
52555;DHT22;38455;52.710;6.502;2023-06-22T10:08:06;31.70;78.50
52555;DHT22;38455;52.710;6.502;2023-06-22T10:10:33;32.40;79.20
52555;DHT22;38455;52.710;6.502;2023-06-22T10:13:08;32.90;78.60
52555;DHT22;38455;52.710;6.502;2023-06-22T10:15:35;33.20;78.10
52555;DHT22;38455;52.710;6.502;2023-06-22T10:18:01;33.00;77.50
52555;DHT22;38455;52.710;6.502;2023-06-22T10:20:26;32.90;77.20
52555;DHT22;38455;52.710;6.502;2023-06-22T10:22:53;33.30;78.10
52555;DHT22;38455;52.710;6.502;2023-06-22T10:25:19;33.40;76.20
52555;DHT22;38455;52.710;6.502;2023-06-22T10:27:45;33.40;76.50
52555;DHT22;38455;52.710;6.502;2023-06-22T10:30:12;33.10;74.80
52555;DHT22;38455;52.710;6.502;2023-06-22T10:32:42;32.90;75.50
52555;DHT22;38455;52.710;6.502;2023-06-22T10:35:10;32.80;76.10
52555;DHT22;38455;52.710;6.502;2023-06-22T10:37:36;32.50;75.70
52555;DHT22;38455;52.710;6.502;2023-06-22T10:40:02;32.20;77.10
52555;DHT22;38455;52.710;6.502;2023-06-22T10:42:29;32.10;77.30
52555;DHT22;38455;52.710;6.502;2023-06-22T10:44:55;32.10;76.30
52555;DHT22;38455;52.710;6.502;2023-06-22T10:47:20;32.20;77.50
52555;DHT22;38455;52.710;6.502;2023-06-22T10:49:46;32.00;76.70
52555;DHT22;38455;52.710;6.502;2023-06-22T10:52:12;32.10;77.90
52555;DHT22;38455;52.710;6.502;2023-06-22T10:54:38;31.90;77.80
52555;DHT22;38455;52.710;6.502;2023-06-22T10:57:04;31.90;77.40
52555;DHT22;38455;52.710;6.502;2023-06-22T10:59:30;31.60;78.60
52555;DHT22;38455;52.710;6.502;2023-06-22T11:01:56;31.50;78.10
52555;DHT22;38455;52.710;6.502;2023-06-22T11:04:23;31.40;78.00
52555;DHT22;38455;52.710;6.502;2023-06-22T11:06:49;31.30;77.90
52555;DHT22;38455;52.710;6.502;2023-06-22T11:09:15;31.10;77.50
52555;DHT22;38455;52.710;6.502;2023-06-22T11:11:51;30.90;77.80
52555;DHT22;38455;52.710;6.502;2023-06-22T11:14:19;30.60;77.30
52555;DHT22;38455;52.710;6.502;2023-06-22T11:16:45;30.30;77.80
52555;DHT22;38455;52.710;6.502;2023-06-22T11:19:12;30.50;78.50
52555;DHT22;38455;52.710;6.502;2023-06-22T11:21:38;30.50;79.70
52555;DHT22;38455;52.710;6.502;2023-06-22T11:24:04;30.50;79.40
52555;DHT22;38455;52.710;6.502;2023-06-22T11:26:30;30.30;79.40
52555;DHT22;38455;52.710;6.502;2023-06-22T11:28:57;29.90;79.90
52555;DHT22;38455;52.710;6.502;2023-06-22T11:31:24;29.80;80.00
52555;DHT22;38455;52.710;6.502;2023-06-22T11:33:50;29.70;79.70
52555;DHT22;38455;52.710;6.502;2023-06-22T11:36:16;29.50;79.90
52555;DHT22;38455;52.710;6.502;2023-06-22T11:38:42;29.50;79.90
52555;DHT22;38455;52.710;6.502;2023-06-22T11:41:09;29.40;78.70
52555;DHT22;38455;52.710;6.502;2023-06-22T11:43:36;29.20;79.30
52555;DHT22;38455;52.710;6.502;2023-06-22T11:46:05;29.10;79.40
52555;DHT22;38455;52.710;6.502;2023-06-22T11:48:31;29.10;80.50
52555;DHT22;38455;52.710;6.502;2023-06-22T11:50:56;29.30;80.50
52555;DHT22;38455;52.710;6.502;2023-06-22T11:53:25;29.20;80.70
52555;DHT22;38455;52.710;6.502;2023-06-22T11:55:51;29.40;81.50
52555;DHT22;38455;52.710;6.502;2023-06-22T11:58:19;29.50;81.00
52555;DHT22;38455;52.710;6.502;2023-06-22T12:00:45;29.50;82.20
52555;DHT22;38455;52.710;6.502;2023-06-22T12:03:10;29.60;82.30
52555;DHT22;38455;52.710;6.502;2023-06-22T12:05:38;29.60;82.50
52555;DHT22;38455;52.710;6.502;2023-06-22T12:08:04;29.70;81.70
52555;DHT22;38455;52.710;6.502;2023-06-22T12:10:30;29.70;81.70
52555;DHT22;38455;52.710;6.502;2023-06-22T12:12:56;29.80;80.80
52555;DHT22;38455;52.710;6.502;2023-06-22T12:15:23;29.80;81.20
52555;DHT22;38455;52.710;6.502;2023-06-22T12:17:49;29.70;82.10
52555;DHT22;38455;52.710;6.502;2023-06-22T12:20:15;29.70;81.80
52555;DHT22;38455;52.710;6.502;2023-06-22T12:22:41;29.60;81.70
52555;DHT22;38455;52.710;6.502;2023-06-22T12:25:08;29.80;81.90
52555;DHT22;38455;52.710;6.502;2023-06-22T12:27:35;29.80;82.00
52555;DHT22;38455;52.710;6.502;2023-06-22T12:30:01;29.90;81.40
52555;DHT22;38455;52.710;6.502;2023-06-22T12:32:27;29.90;80.70
52555;DHT22;38455;52.710;6.502;2023-06-22T12:34:52;29.80;80.50
52555;DHT22;38455;52.710;6.502;2023-06-22T12:37:18;29.80;80.60
52555;DHT22;38455;52.710;6.502;2023-06-22T12:39:44;29.40;81.80
52555;DHT22;38455;52.710;6.502;2023-06-22T12:42:10;29.20;82.10
52555;DHT22;38455;52.710;6.502;2023-06-22T12:44:40;28.90;82.20
52555;DHT22;38455;52.710;6.502;2023-06-22T12:47:06;29.00;83.30
52555;DHT22;38455;52.710;6.502;2023-06-22T12:49:36;28.80;83.60
52555;DHT22;38455;52.710;6.502;2023-06-22T12:52:02;28.80;84.00
52555;DHT22;38455;52.710;6.502;2023-06-22T12:54:29;28.80;84.00
52555;DHT22;38455;52.710;6.502;2023-06-22T12:56:55;28.80;84.40
52555;DHT22;38455;52.710;6.502;2023-06-22T12:59:21;28.70;84.60
52555;DHT22;38455;52.710;6.502;2023-06-22T13:01:47;28.60;86.40
52555;DHT22;38455;52.710;6.502;2023-06-22T13:04:13;28.40;86.80
52555;DHT22;38455;52.710;6.502;2023-06-22T13:06:46;28.40;86.50
52555;DHT22;38455;52.710;6.502;2023-06-22T13:09:15;28.40;86.10
52555;DHT22;38455;52.710;6.502;2023-06-22T13:11:42;28.40;86.30
52555;DHT22;38455;52.710;6.502;2023-06-22T13:14:08;28.20;86.30
52555;DHT22;38455;52.710;6.502;2023-06-22T13:16:33;28.00;86.50
52555;DHT22;38455;52.710;6.502;2023-06-22T13:18:59;27.80;87.00
52555;DHT22;38455;52.710;6.502;2023-06-22T13:21:25;27.80;87.10
52555;DHT22;38455;52.710;6.502;2023-06-22T13:23:50;27.80;87.70
52555;DHT22;38455;52.710;6.502;2023-06-22T13:26:16;27.50;87.10
52555;DHT22;38455;52.710;6.502;2023-06-22T13:28:42;27.40;88.00
52555;DHT22;38455;52.710;6.502;2023-06-22T13:31:08;27.20;88.30
52555;DHT22;38455;52.710;6.502;2023-06-22T13:33:33;27.30;88.60
52555;DHT22;38455;52.710;6.502;2023-06-22T13:35:59;27.30;88.60
52555;DHT22;38455;52.710;6.502;2023-06-22T13:38:25;27.20;89.40
52555;DHT22;38455;52.710;6.502;2023-06-22T13:40:50;27.30;90.00
52555;DHT22;38455;52.710;6.502;2023-06-22T13:43:16;27.20;89.70
52555;DHT22;38455;52.710;6.502;2023-06-22T13:45:42;27.10;90.00
52555;DHT22;38455;52.710;6.502;2023-06-22T13:48:08;27.00;90.40
52555;DHT22;38455;52.710;6.502;2023-06-22T13:50:34;27.00;90.40
52555;DHT22;38455;52.710;6.502;2023-06-22T13:53:00;27.10;90.80
52555;DHT22;38455;52.710;6.502;2023-06-22T13:55:26;27.00;90.20
52555;DHT22;38455;52.710;6.502;2023-06-22T13:57:52;26.90;90.20
52555;DHT22;38455;52.710;6.502;2023-06-22T14:00:18;26.90;90.20
52555;DHT22;38455;52.710;6.502;2023-06-22T14:02:44;26.80;90.50
52555;DHT22;38455;52.710;6.502;2023-06-22T14:05:10;26.70;90.70
52555;DHT22;38455;52.710;6.502;2023-06-22T14:07:36;26.60;91.00
52555;DHT22;38455;52.710;6.502;2023-06-22T14:10:03;26.70;91.70
52555;DHT22;38455;52.710;6.502;2023-06-22T14:12:29;26.70;91.40
52555;DHT22;38455;52.710;6.502;2023-06-22T14:14:55;26.70;91.40
52555;DHT22;38455;52.710;6.502;2023-06-22T14:17:21;26.60;91.60
52555;DHT22;38455;52.710;6.502;2023-06-22T14:19:50;26.60;92.30
52555;DHT22;38455;52.710;6.502;2023-06-22T14:22:19;26.30;92.30
52555;DHT22;38455;52.710;6.502;2023-06-22T14:24:45;26.30;92.70
52555;DHT22;38455;52.710;6.502;2023-06-22T14:27:11;26.30;92.70
52555;DHT22;38455;52.710;6.502;2023-06-22T14:29:36;26.20;93.00
52555;DHT22;38455;52.710;6.502;2023-06-22T14:32:02;26.20;95.50
52555;DHT22;38455;52.710;6.502;2023-06-22T14:34:28;26.20;95.50
52555;DHT22;38455;52.710;6.502;2023-06-22T14:36:54;26.20;96.10
52555;DHT22;38455;52.710;6.502;2023-06-22T14:39:19;26.20;98.00
52555;DHT22;38455;52.710;6.502;2023-06-22T14:41:46;26.00;99.60
52555;DHT22;38455;52.710;6.502;2023-06-22T14:44:12;25.80;99.80
52555;DHT22;38455;52.710;6.502;2023-06-22T14:46:37;25.80;99.90
52555;DHT22;38455;52.710;6.502;2023-06-22T14:49:03;25.60;99.90
52555;DHT22;38455;52.710;6.502;2023-06-22T14:51:29;25.30;99.90
52555;DHT22;38455;52.710;6.502;2023-06-22T14:53:55;25.00;99.90
52555;DHT22;38455;52.710;6.502;2023-06-22T14:56:21;24.80;99.90
52555;DHT22;38455;52.710;6.502;2023-06-22T14:58:47;24.80;99.90
52555;DHT22;38455;52.710;6.502;2023-06-22T15:01:13;24.60;99.90
52555;DHT22;38455;52.710;6.502;2023-06-22T15:03:38;24.50;99.90
52555;DHT22;38455;52.710;6.502;2023-06-22T15:06:04;24.30;99.90
52555;DHT22;38455;52.710;6.502;2023-06-22T15:08:30;24.20;99.90
52555;DHT22;38455;52.710;6.502;2023-06-22T15:10:59;23.90;99.90
52555;DHT22;38455;52.710;6.502;2023-06-22T15:13:27;23.80;99.90
52555;DHT22;38455;52.710;6.502;2023-06-22T15:15:53;23.70;99.90
52555;DHT22;38455;52.710;6.502;2023-06-22T15:18:19;23.50;99.90
52555;DHT22;38455;52.710;6.502;2023-06-22T15:20:44;23.40;99.90
52555;DHT22;38455;52.710;6.502;2023-06-22T15:23:11;23.40;99.90
52555;DHT22;38455;52.710;6.502;2023-06-22T15:25:37;23.40;99.90
52555;DHT22;38455;52.710;6.502;2023-06-22T15:28:03;23.30;99.90
52555;DHT22;38455;52.710;6.502;2023-06-22T15:30:29;23.30;99.90
52555;DHT22;38455;52.710;6.502;2023-06-22T15:32:56;23.20;99.90
52555;DHT22;38455;52.710;6.502;2023-06-22T15:35:22;23.10;99.90